Meteo Giornale » Osservazioni meteo Slovacchia » Poprad-Tatry
ore: 21:30 - Osservazioni Meteo Poprad-Tatry
Lat. 49° 4' N Lon. 20° 15' E Alt. 694 metri s.l.m.
15 °C
Poco Nuvoloso
Temp. 24 Ore
15 °C
24 °C
Ovest/Nord-Ovest
11.1 Km/h
Dew point 7 °C
Umidità 58 %
Visibilità 10 Km
Il sole sorge alle ore 05:55
Il sole tramonta alle ore 19:22
| Data e Ora | Cielo e Fenomeni | T °C | DP °C | Um. % | Pres. hPa | Vis. km | Vento km/h | |
|---|---|---|---|---|---|---|---|---|
| Oggi h: 21:30 | Poco Nuvoloso | 15 | 7 | 58 | 1021 | 10 | O/NO 11.1 | |
| Oggi h: 21:00 | Poco Nuvoloso | 16 | 7 | 55 | 1021 | 10 | O/NO 14.8 | |
| Oggi h: 20:30 | Poco Nuvoloso | 17 | 7 | 51 | 1020 | 10 | O 14.8 | |
| Oggi h: 20:00 | Poco Nuvoloso | 18 | 7 | 48 | 1020 | 10 | O/NO 11.1 | |
| Oggi h: 19:30 | Poco Nuvoloso | 19 | 7 | 45 | 1020 | 10 | O 27.8 | |
| Oggi h: 19:00 | Poco Nuvoloso | 20 | 7 | 42 | 1019 | 10 | O 29.6 | |
| Oggi h: 18:30 | Poco Nuvoloso | 20 | 7 | 42 | 1019 | 10 | O 27.8 | |
| Oggi h: 18:00 | Poco Nuvoloso | 21 | 7 | 40 | 1019 | 10 | O 27.8 | |
| Oggi h: 17:30 | Poco Nuvoloso | 22 | 8 | 40 | 1019 | 10 | O 27.8 | |
| Oggi h: 17:00 | Poco Nuvoloso | 23 | 8 | 38 | 1019 | 10 | O 25.9 | |
| Oggi h: 16:30 | Poco Nuvoloso | 23 | 8 | 38 | 1019 | 10 | O 27.8 | |
| Oggi h: 16:00 | Poco Nuvoloso | 23 | 8 | 38 | 1019 | 10 | O 25.9 | |
| Oggi h: 15:30 | Poco Nuvoloso | 24 | 8 | 35 | 1019 | 10 | O 25.9 | |
| Oggi h: 15:00 | Poco Nuvoloso | 24 | 8 | 35 | 1019 | 10 | O 25.9 | |
| Oggi h: 14:30 | Poco Nuvoloso | 24 | 7 | 33 | 1019 | 10 | O 24 | |
| Oggi h: 14:00 | Poco Nuvoloso | 24 | 8 | 35 | 1019 | 10 | O 27.8 | |
| Oggi h: 13:30 | Poco Nuvoloso | 24 | 8 | 35 | 1019 | 10 | O 22.2 | |
| Oggi h: 13:00 | Poco Nuvoloso | 23 | 8 | 38 | 1019 | 10 | O 31.5 | |
| Oggi h: 12:30 | Poco Nuvoloso | 23 | 8 | 38 | 1019 | 10 | O 31.5 | |
| Oggi h: 12:00 | Poco Nuvoloso | 23 | 8 | 38 | 1019 | 10 | O 29.6 | |
| Oggi h: 11:30 | Poco Nuvoloso | 23 | 8 | 38 | 1019 | 10 | O 29.6 | |
| Oggi h: 11:00 | Poco Nuvoloso | 22 | 9 | 43 | 1019 | 10 | O 31.5 | |
| Oggi h: 10:30 | Poco Nuvoloso | 23 | 10 | 43 | 1019 | 10 | O 27.8 | |
| Oggi h: 10:00 | Poco Nuvoloso | 21 | 9 | 46 | 1019 | 10 | O 27.8 | |
| Oggi h: 09:30 | Poco Nuvoloso | 21 | 10 | 49 | 1018 | 10 | O 24 | |
| Oggi h: 09:00 | Poco Nuvoloso | 20 | 10 | 52 | 1018 | 10 | O 20.3 | |
| Oggi h: 08:30 | Poco Nuvoloso | 19 | 10 | 55 | 1018 | 10 | O/NO 7.4 | |
| Oggi h: 08:00 | Poco Nuvoloso | 19 | 9 | 52 | 1018 | 10 | O 7.4 | |
| Oggi h: 07:30 | Sereno | 17 | 11 | 67 | 1018 | 10 | O 13 | |
| Oggi h: 07:00 | Poco Nuvoloso | 16 | 12 | 77 | 1018 | 10 | O/NO 13 | |
| Oggi h: 06:30 | Poco Nuvoloso | 16 | 11 | 72 | 1018 | 10 | O/NO 13 | |
| Oggi h: 06:00 | Poco Nuvoloso | 17 | 13 | 77 | 1018 | 10 | O 7.4 | |
| Oggi h: 05:30 | Poco Nuvoloso | 16 | 13 | 82 | 1017 | 10 | N 5.5 | |
| Oggi h: 05:00 | Poco Nuvoloso | 17 | 12 | 72 | 1017 | 10 | NO 9.3 | |
| Oggi h: 04:30 | Poco Nuvoloso | 17 | 13 | 77 | 1017 | 10 | N 5.5 | |
| Oggi h: 04:00 | Poco Nuvoloso | 17 | 13 | 77 | 1017 | 10 | O 22.2 | |
| Oggi h: 03:30 | Poco Nuvoloso | 18 | 13 | 72 | 1017 | 10 | O 11.1 | |
| Oggi h: 03:00 | Poco Nuvoloso | 18 | 13 | 72 | 1018 | 10 | O/NO 14.8 | |
| Oggi h: 02:30 | Poco Nuvoloso | 17 | 13 | 77 | 1017 | 10 | O 22.2 | |
| Oggi h: 02:00 | Sereno | 17 | 13 | 77 | 1017 | 10 | O 9.3 | |
| Oggi h: 01:30 | Sereno | 16 | 14 | 87 | 1017 | 10 | O 7.4 | |
| Oggi h: 01:00 | Sereno | 16 | 15 | 93 | 1017 | 10 | O 7.4 | |
| Oggi h: 00:30 | Sereno | 16 | 15 | 93 | 1017 | 10 | N 1.8 | |
| Oggi h: 00:00 | Sereno | 17 | 14 | 82 | 1017 | 10 | N 1.8 | |
| Ieri h: 23:30 | Sereno | 17 | 15 | 88 | 1017 | 10 | N 5.5 | |
| Ieri h: 23:00 | Sereno | 18 | 15 | 82 | 1017 | 10 | N 5.5 | |



